createdAt,value
2023-04-30T00:00:51.788Z,8.46
2023-04-30T00:01:51.804Z,8.45
2023-04-30T00:02:51.831Z,8.37
2023-04-30T00:03:51.944Z,8.36
2023-04-30T00:04:51.750Z,8.33
2023-04-30T00:05:51.736Z,8.30
2023-04-30T00:06:51.736Z,8.27
2023-04-30T00:07:51.743Z,8.27
2023-04-30T00:08:51.686Z,8.30
2023-04-30T00:09:51.829Z,8.26
2023-04-30T00:10:51.682Z,8.16
2023-04-30T00:11:51.666Z,8.23
2023-04-30T00:12:51.643Z,8.26
2023-04-30T00:13:51.703Z,8.20
2023-04-30T00:14:51.630Z,8.10
2023-04-30T00:15:51.678Z,8.09
2023-04-30T00:16:51.634Z,8.09
2023-04-30T00:17:51.695Z,8.12
2023-04-30T00:18:51.596Z,8.10
2023-04-30T00:19:51.639Z,8.09
2023-04-30T00:20:51.556Z,8.16
2023-04-30T00:21:51.562Z,8.10
2023-04-30T00:22:51.558Z,8.12
2023-04-30T00:23:51.523Z,8.08
2023-04-30T00:24:51.540Z,8.10
2023-04-30T00:25:51.523Z,8.08
2023-04-30T00:26:51.485Z,8.12
2023-04-30T00:27:51.532Z,8.09
2023-04-30T00:28:51.501Z,8.12
2023-04-30T00:29:51.516Z,8.09
2023-04-30T00:30:51.446Z,8.09
2023-04-30T00:31:51.520Z,8.10
2023-04-30T00:32:51.466Z,8.13
2023-04-30T00:33:51.621Z,8.03
2023-04-30T00:34:51.419Z,8.10
2023-04-30T00:35:51.401Z,8.05
2023-04-30T00:36:51.381Z,8.06
2023-04-30T00:37:51.573Z,8.12
2023-04-30T00:38:51.372Z,8.09
2023-04-30T00:39:51.373Z,8.03
2023-04-30T00:40:51.396Z,8.03
2023-04-30T00:41:51.320Z,8.05
2023-04-30T00:42:51.321Z,8.03
2023-04-30T00:43:51.323Z,7.91
2023-04-30T00:44:51.309Z,7.97
2023-04-30T00:45:51.352Z,7.91
2023-04-30T00:46:51.283Z,7.88
2023-04-30T00:47:51.346Z,7.91
2023-04-30T00:48:51.264Z,7.91
2023-04-30T00:49:51.306Z,7.91
2023-04-30T00:50:51.224Z,7.93
2023-04-30T00:51:51.240Z,7.91
2023-04-30T00:52:51.221Z,7.87
2023-04-30T00:53:51.219Z,7.87
2023-04-30T00:54:51.227Z,7.93
2023-04-30T00:55:51.196Z,7.93
2023-04-30T00:56:51.162Z,7.93
2023-04-30T00:57:51.160Z,7.91
2023-04-30T00:58:51.192Z,7.93
2023-04-30T00:59:51.162Z,7.95
2023-04-30T01:00:51.182Z,8.06
2023-04-30T01:01:51.116Z,8.06
2023-04-30T01:02:51.214Z,8.01
2023-04-30T01:03:51.163Z,8.03
2023-04-30T01:04:51.099Z,8.10
2023-04-30T01:05:51.054Z,8.15
2023-04-30T01:06:51.078Z,8.05
2023-04-30T01:07:51.056Z,8.12
2023-04-30T01:08:51.094Z,8.06
2023-04-30T01:09:51.042Z,8.10
2023-04-30T01:10:50.996Z,8.09
2023-04-30T01:11:51.018Z,8.08
2023-04-30T01:12:51.006Z,8.00
2023-04-30T01:13:50.948Z,8.06
2023-04-30T01:14:51.023Z,8.03
2023-04-30T01:15:50.947Z,8.00
2023-04-30T01:16:50.914Z,8.01
2023-04-30T01:17:50.975Z,7.94
2023-04-30T01:18:50.943Z,7.91
2023-04-30T01:19:50.899Z,7.90
2023-04-30T01:20:50.859Z,7.83
2023-04-30T01:21:51.056Z,7.95
2023-04-30T01:22:50.840Z,7.93
2023-04-30T01:23:50.840Z,7.82
2023-04-30T01:24:50.820Z,7.91
2023-04-30T01:25:50.811Z,7.87
2023-04-30T01:26:50.796Z,7.85
2023-04-30T01:27:50.776Z,7.82
2023-04-30T01:28:50.770Z,7.79
2023-04-30T01:29:50.767Z,7.76
2023-04-30T01:30:50.942Z,7.90
2023-04-30T01:31:51.008Z,7.82
2023-04-30T01:32:50.735Z,7.76
2023-04-30T01:33:50.941Z,7.80
2023-04-30T01:34:50.896Z,7.77
2023-04-30T01:35:50.736Z,7.77
2023-04-30T01:36:50.702Z,7.82
2023-04-30T01:37:50.720Z,7.79
2023-04-30T01:38:50.689Z,7.80
2023-04-30T01:39:50.705Z,7.77
2023-04-30T01:40:50.643Z,7.76
2023-04-30T01:41:50.657Z,7.76
2023-04-30T01:42:50.668Z,7.63
2023-04-30T01:43:50.611Z,7.76
2023-04-30T01:44:50.617Z,7.66
2023-04-30T01:45:50.663Z,7.69
2023-04-30T01:46:50.595Z,7.70
2023-04-30T01:47:50.750Z,7.69
2023-04-30T01:48:50.572Z,7.66
2023-04-30T01:49:50.577Z,7.73
2023-04-30T01:50:50.574Z,7.77
2023-04-30T01:51:50.528Z,7.80
2023-04-30T01:52:50.510Z,7.79
2023-04-30T01:53:50.537Z,7.76
2023-04-30T01:54:50.502Z,7.85
2023-04-30T01:55:50.498Z,7.87
2023-04-30T01:56:50.487Z,7.90
2023-04-30T01:57:50.451Z,7.90
2023-04-30T01:58:50.461Z,7.91
2023-04-30T01:59:50.527Z,7.95
2023-04-30T02:00:50.420Z,8.00
2023-04-30T02:01:50.478Z,7.98
2023-04-30T02:02:50.504Z,8.05
2023-04-30T02:03:50.552Z,8.05
2023-04-30T02:04:50.388Z,8.09
2023-04-30T02:05:50.400Z,8.13
2023-04-30T02:06:50.343Z,8.10
2023-04-30T02:07:50.375Z,8.20
2023-04-30T02:08:50.349Z,8.26
2023-04-30T02:09:50.630Z,8.20
2023-04-30T02:10:50.303Z,8.27
2023-04-30T02:11:50.287Z,8.20
2023-04-30T02:12:50.270Z,8.28
2023-04-30T02:13:50.274Z,8.37
2023-04-30T02:14:50.286Z,8.48
2023-04-30T02:15:50.380Z,8.34
2023-04-30T02:16:50.239Z,8.46
2023-04-30T02:17:50.259Z,8.49
2023-04-30T02:18:50.270Z,8.51
2023-04-30T02:19:50.190Z,8.49
2023-04-30T02:20:50.185Z,8.48
2023-04-30T02:21:50.209Z,8.60
2023-04-30T02:22:50.172Z,8.55
2023-04-30T02:23:50.162Z,8.49
2023-04-30T02:24:50.125Z,8.51
2023-04-30T02:25:50.115Z,8.58
2023-04-30T02:26:50.131Z,8.51
2023-04-30T02:27:50.100Z,8.52
2023-04-30T02:28:50.074Z,8.55
2023-04-30T02:29:50.073Z,8.58
2023-04-30T02:30:50.076Z,8.63
2023-04-30T02:31:50.110Z,8.56
2023-04-30T02:32:50.072Z,8.66
2023-04-30T02:33:50.026Z,8.63
2023-04-30T02:34:50.035Z,8.69
2023-04-30T02:35:49.999Z,8.67
2023-04-30T02:36:50.000Z,8.61
2023-04-30T02:37:50.022Z,8.70
2023-04-30T02:38:49.980Z,8.67
2023-04-30T02:39:49.951Z,8.66
2023-04-30T02:40:49.953Z,8.67
2023-04-30T02:41:49.923Z,8.66
2023-04-30T02:42:49.923Z,8.60
2023-04-30T02:43:49.904Z,8.66
2023-04-30T02:44:49.922Z,8.66
2023-04-30T02:45:50.219Z,8.66
2023-04-30T02:46:49.954Z,8.67
2023-04-30T02:47:49.926Z,8.71
2023-04-30T02:48:49.860Z,8.66
2023-04-30T02:49:49.841Z,8.67
2023-04-30T02:50:49.869Z,8.66
2023-04-30T02:51:49.845Z,8.61
2023-04-30T02:52:49.843Z,8.63
2023-04-30T02:53:49.845Z,8.67
2023-04-30T02:54:49.824Z,8.64
2023-04-30T02:55:49.809Z,8.74
2023-04-30T02:56:49.792Z,8.70
2023-04-30T02:57:49.772Z,8.64
2023-04-30T02:58:49.746Z,8.63
2023-04-30T02:59:49.742Z,8.64
2023-04-30T03:00:49.724Z,8.70
2023-04-30T03:01:49.871Z,8.64
2023-04-30T03:02:49.810Z,8.70
2023-04-30T03:03:49.713Z,8.70
2023-04-30T03:04:49.696Z,8.70
2023-04-30T03:05:49.672Z,8.73
2023-04-30T03:06:49.700Z,8.74
2023-04-30T03:07:49.684Z,8.73
2023-04-30T03:08:49.691Z,8.73
2023-04-30T03:09:49.694Z,8.79
2023-04-30T03:10:49.600Z,8.74
2023-04-30T03:11:49.645Z,8.74
2023-04-30T03:12:49.614Z,8.73
2023-04-30T03:13:49.630Z,8.73
2023-04-30T03:14:49.630Z,8.78
2023-04-30T03:15:49.667Z,8.81
2023-04-30T03:16:49.643Z,8.76
2023-04-30T03:17:49.589Z,8.82
2023-04-30T03:18:49.537Z,8.76
2023-04-30T03:19:49.549Z,8.74
2023-04-30T03:20:49.529Z,8.73
2023-04-30T03:21:49.491Z,8.71
2023-04-30T03:22:49.520Z,8.63
2023-04-30T03:23:49.491Z,8.76
2023-04-30T03:24:49.478Z,8.71
2023-04-30T03:25:49.462Z,8.73
2023-04-30T03:26:49.421Z,8.66
2023-04-30T03:27:49.428Z,8.71
2023-04-30T03:28:49.426Z,8.64
2023-04-30T03:29:49.396Z,8.66
2023-04-30T03:30:49.378Z,8.67
2023-04-30T03:31:49.395Z,8.60
2023-04-30T03:32:49.408Z,8.63
2023-04-30T03:33:49.387Z,8.63
2023-04-30T03:34:49.338Z,8.60
2023-04-30T03:35:49.331Z,8.60
2023-04-30T03:36:49.325Z,8.56
2023-04-30T03:37:49.306Z,8.60
2023-04-30T03:38:49.306Z,8.58
2023-04-30T03:39:49.303Z,8.56
2023-04-30T03:40:49.300Z,8.48
2023-04-30T03:41:49.287Z,8.48
2023-04-30T03:42:51.223Z,8.53
2023-04-30T03:43:49.257Z,8.55
2023-04-30T03:44:49.243Z,8.61
2023-04-30T03:45:49.249Z,8.53
2023-04-30T03:46:49.210Z,8.55
2023-04-30T03:47:49.281Z,8.56
2023-04-30T03:48:49.227Z,8.46
2023-04-30T03:49:49.195Z,8.53
2023-04-30T03:50:49.160Z,8.42
2023-04-30T03:51:49.170Z,8.42
2023-04-30T03:52:49.151Z,8.51
2023-04-30T03:53:49.147Z,8.46
2023-04-30T03:54:49.124Z,8.45
2023-04-30T03:55:49.102Z,8.38
2023-04-30T03:56:49.099Z,8.37
2023-04-30T03:57:49.098Z,8.31
2023-04-30T03:58:49.073Z,8.36
2023-04-30T03:59:49.078Z,8.28
2023-04-30T04:00:49.056Z,8.33
2023-04-30T04:01:49.058Z,8.33
2023-04-30T04:02:49.070Z,8.27
2023-04-30T04:03:49.040Z,8.26
2023-04-30T04:04:49.003Z,8.24
2023-04-30T04:05:49.023Z,8.26
2023-04-30T04:06:48.998Z,8.20
2023-04-30T04:07:48.991Z,8.23
2023-04-30T04:08:48.962Z,8.23
2023-04-30T04:09:48.953Z,8.30
2023-04-30T04:10:48.936Z,8.19
2023-04-30T04:11:48.913Z,8.12
2023-04-30T04:12:48.906Z,8.10
2023-04-30T04:13:48.918Z,8.20
2023-04-30T04:14:48.884Z,8.18
2023-04-30T04:15:48.982Z,8.28
2023-04-30T04:16:48.881Z,8.24
2023-04-30T04:17:48.912Z,8.26
2023-04-30T04:18:48.862Z,8.20
2023-04-30T04:19:48.900Z,8.28
2023-04-30T04:20:48.867Z,8.48
2023-04-30T04:21:48.833Z,8.63
2023-04-30T04:22:48.820Z,8.84
2023-04-30T04:23:48.796Z,9.03
2023-04-30T04:24:48.802Z,9.23
2023-04-30T04:25:48.806Z,9.37
2023-04-30T04:26:48.777Z,9.51
2023-04-30T04:27:48.761Z,9.62
2023-04-30T04:28:48.772Z,9.59
2023-04-30T04:29:48.751Z,9.72
2023-04-30T04:30:48.735Z,9.82
2023-04-30T04:31:48.750Z,9.89
2023-04-30T04:32:48.764Z,10.02
2023-04-30T04:33:48.802Z,10.07
2023-04-30T04:34:48.686Z,10.12
2023-04-30T04:35:48.702Z,10.05
2023-04-30T04:36:48.682Z,10.25
2023-04-30T04:37:48.668Z,10.37
2023-04-30T04:38:48.647Z,10.38
2023-04-30T04:39:48.649Z,10.42
2023-04-30T04:40:48.652Z,10.46
2023-04-30T04:41:48.653Z,10.49
2023-04-30T04:42:48.593Z,10.61
2023-04-30T04:43:48.579Z,10.67
2023-04-30T04:44:48.614Z,10.71
2023-04-30T04:45:48.704Z,10.81
2023-04-30T04:46:48.813Z,10.82
2023-04-30T04:47:48.583Z,10.79
2023-04-30T04:48:48.551Z,10.84
2023-04-30T04:49:48.551Z,10.84
2023-04-30T04:50:48.533Z,10.68
2023-04-30T04:51:48.508Z,10.68
2023-04-30T04:52:48.502Z,10.72
2023-04-30T04:53:48.502Z,10.75
2023-04-30T04:54:48.508Z,10.76
2023-04-30T04:55:48.446Z,10.67
2023-04-30T04:56:48.479Z,10.53
2023-04-30T04:57:48.474Z,10.40
2023-04-30T04:58:48.476Z,10.42
2023-04-30T04:59:48.425Z,10.23
2023-04-30T05:00:48.428Z,10.17
2023-04-30T05:01:48.513Z,10.13
2023-04-30T05:02:48.536Z,10.01
2023-04-30T05:03:48.515Z,9.99
2023-04-30T05:04:48.374Z,9.89
2023-04-30T05:05:48.566Z,9.97
2023-04-30T05:06:48.395Z,9.86
2023-04-30T05:07:48.346Z,10.12
2023-04-30T05:08:48.328Z,10.01
2023-04-30T05:09:48.331Z,9.98
2023-04-30T05:10:48.292Z,9.94
2023-04-30T05:11:48.287Z,9.91
2023-04-30T05:12:48.275Z,9.86
2023-04-30T05:13:48.280Z,9.95
2023-04-30T05:14:48.314Z,9.80
2023-04-30T05:15:48.286Z,9.86
2023-04-30T05:16:48.265Z,9.92
2023-04-30T05:17:48.307Z,9.84
2023-04-30T05:18:48.216Z,9.79
2023-04-30T05:19:48.188Z,9.89
2023-04-30T05:20:48.183Z,9.97
2023-04-30T05:21:48.380Z,10.02
2023-04-30T05:22:48.180Z,10.12
2023-04-30T05:23:48.146Z,10.17
2023-04-30T05:24:48.139Z,10.09
2023-04-30T05:25:48.144Z,10.04
2023-04-30T05:26:48.134Z,10.13
2023-04-30T05:27:48.135Z,10.01
2023-04-30T05:28:48.137Z,9.98
2023-04-30T05:29:48.320Z,9.95
2023-04-30T05:30:48.103Z,9.97
2023-04-30T05:31:48.121Z,9.72
2023-04-30T05:32:48.098Z,9.79
2023-04-30T05:33:48.090Z,9.91
2023-04-30T05:34:48.058Z,9.97
2023-04-30T05:35:48.038Z,10.02
2023-04-30T05:36:48.049Z,9.95
2023-04-30T05:37:48.028Z,9.80
2023-04-30T05:38:48.026Z,9.82
2023-04-30T05:39:47.995Z,9.80
2023-04-30T05:40:48.032Z,9.82
2023-04-30T05:41:48.988Z,9.91
2023-04-30T05:42:47.996Z,9.89
2023-04-30T05:43:48.016Z,9.66
2023-04-30T05:44:47.947Z,9.69
2023-04-30T05:45:48.010Z,9.68
2023-04-30T05:46:47.930Z,9.73
2023-04-30T05:47:48.014Z,9.72
2023-04-30T05:48:47.912Z,9.77
2023-04-30T05:49:47.918Z,9.74
2023-04-30T05:50:47.945Z,9.86
2023-04-30T05:51:47.888Z,9.98
2023-04-30T05:52:47.893Z,10.19
2023-04-30T05:53:47.890Z,10.04
2023-04-30T05:54:49.990Z,10.19
2023-04-30T05:55:47.903Z,10.12
2023-04-30T05:56:47.868Z,10.19
2023-04-30T05:57:47.855Z,10.17
2023-04-30T05:58:47.851Z,9.98
2023-04-30T05:59:47.792Z,9.95
2023-04-30T06:00:47.850Z,10.10
2023-04-30T06:01:47.804Z,10.17
2023-04-30T06:02:47.862Z,10.05
2023-04-30T06:03:47.774Z,10.12
2023-04-30T06:04:47.784Z,10.02
2023-04-30T06:05:47.851Z,10.05
2023-04-30T06:06:47.832Z,10.07
2023-04-30T06:07:47.735Z,10.15
2023-04-30T06:08:47.736Z,10.16
2023-04-30T06:09:47.713Z,10.05
2023-04-30T06:10:47.714Z,10.15
2023-04-30T06:11:47.704Z,10.15
2023-04-30T06:12:47.642Z,10.07
2023-04-30T06:13:47.634Z,10.16
2023-04-30T06:14:47.650Z,9.99
2023-04-30T06:15:47.653Z,9.95
2023-04-30T06:16:47.644Z,10.12
2023-04-30T06:17:47.610Z,10.13
2023-04-30T06:18:47.589Z,10.37
2023-04-30T06:19:47.617Z,10.37
2023-04-30T06:20:47.634Z,10.37
2023-04-30T06:21:47.628Z,10.09
2023-04-30T06:22:47.597Z,10.22
2023-04-30T06:23:47.562Z,10.09
2023-04-30T06:24:47.570Z,10.33
2023-04-30T06:25:47.581Z,10.38
2023-04-30T06:26:47.564Z,10.57
2023-04-30T06:27:47.516Z,10.72
2023-04-30T06:28:47.531Z,10.82
2023-04-30T06:29:47.529Z,10.94
2023-04-30T06:30:47.515Z,10.89
2023-04-30T06:31:47.609Z,10.76
2023-04-30T06:32:47.477Z,10.59
2023-04-30T06:33:47.476Z,10.41
2023-04-30T06:34:47.462Z,10.41
2023-04-30T06:35:47.453Z,10.38
2023-04-30T06:36:47.433Z,10.35
2023-04-30T06:37:47.451Z,10.49
2023-04-30T06:38:47.423Z,10.54
2023-04-30T06:39:47.393Z,10.59
2023-04-30T06:40:47.413Z,10.63
2023-04-30T06:41:47.383Z,10.74
2023-04-30T06:42:47.779Z,11.08
2023-04-30T06:43:47.355Z,11.25
2023-04-30T06:44:47.384Z,11.22
2023-04-30T06:45:47.381Z,11.12
2023-04-30T06:46:47.335Z,11.25
2023-04-30T06:47:47.404Z,11.50
2023-04-30T06:48:47.299Z,11.78
2023-04-30T06:49:47.302Z,12.07
2023-04-30T06:50:47.278Z,11.66
2023-04-30T06:51:47.285Z,10.76
2023-04-30T06:52:47.276Z,10.72
2023-04-30T06:53:47.326Z,10.79
2023-04-30T06:54:47.297Z,10.81
2023-04-30T06:55:47.233Z,10.94
2023-04-30T06:56:47.227Z,11.04
2023-04-30T06:57:47.208Z,10.97
2023-04-30T06:58:47.229Z,10.94
2023-04-30T06:59:47.197Z,10.71
2023-04-30T07:00:47.210Z,10.87
2023-04-30T07:01:47.203Z,10.75
2023-04-30T07:02:47.235Z,10.75
2023-04-30T07:03:47.316Z,10.68
2023-04-30T07:04:47.149Z,10.72
2023-04-30T07:05:47.158Z,10.84
2023-04-30T07:06:47.158Z,10.92
2023-04-30T07:07:47.127Z,10.97
2023-04-30T07:08:47.122Z,10.74
2023-04-30T07:09:48.530Z,10.60
2023-04-30T07:10:47.134Z,10.54
2023-04-30T07:11:47.105Z,10.68
2023-04-30T07:12:47.068Z,10.68
2023-04-30T07:13:47.126Z,10.78
2023-04-30T07:14:47.053Z,10.87
2023-04-30T07:15:47.109Z,10.92
2023-04-30T07:16:47.030Z,11.08
2023-04-30T07:17:47.108Z,11.04
2023-04-30T07:18:47.006Z,10.99
2023-04-30T07:19:47.003Z,11.02
2023-04-30T07:20:47.007Z,11.36
2023-04-30T07:21:47.035Z,11.59
2023-04-30T07:22:46.982Z,11.69
2023-04-30T07:23:47.184Z,11.75
2023-04-30T07:24:46.994Z,11.51
2023-04-30T07:25:46.964Z,11.33
2023-04-30T07:26:46.999Z,11.36
2023-04-30T07:27:46.976Z,11.10
2023-04-30T07:28:46.966Z,11.10
2023-04-30T07:29:46.928Z,11.36
2023-04-30T07:30:46.889Z,11.37
2023-04-30T07:31:46.980Z,11.26
2023-04-30T07:32:46.906Z,11.29
2023-04-30T07:33:46.917Z,11.35
2023-04-30T07:34:46.872Z,11.30
2023-04-30T07:35:46.856Z,11.62
2023-04-30T07:36:46.891Z,12.03
2023-04-30T07:37:46.875Z,12.10
2023-04-30T07:38:46.856Z,12.10
2023-04-30T07:39:46.836Z,11.69
2023-04-30T07:40:46.832Z,11.44
2023-04-30T07:41:46.853Z,11.43
2023-04-30T07:42:46.772Z,11.72
2023-04-30T07:43:46.763Z,11.88
2023-04-30T07:44:46.765Z,11.75
2023-04-30T07:45:46.782Z,11.84
2023-04-30T07:46:46.746Z,12.09
2023-04-30T07:47:46.762Z,12.18
2023-04-30T07:48:46.734Z,12.03
2023-04-30T07:49:46.711Z,12.25
2023-04-30T07:50:46.702Z,12.32
2023-04-30T07:51:46.697Z,12.53
2023-04-30T07:52:46.724Z,12.78
2023-04-30T07:53:46.678Z,12.45
2023-04-30T07:54:46.667Z,12.27
2023-04-30T07:55:46.665Z,12.09
2023-04-30T07:56:46.658Z,11.60
2023-04-30T07:57:46.665Z,11.66
2023-04-30T07:58:46.636Z,11.80
2023-04-30T07:59:46.704Z,11.90
2023-04-30T08:00:46.631Z,11.83
2023-04-30T08:01:46.638Z,12.09
2023-04-30T08:02:46.954Z,12.31
2023-04-30T08:03:46.710Z,12.18
2023-04-30T08:04:46.624Z,12.36
2023-04-30T08:05:46.576Z,12.55
2023-04-30T08:06:46.853Z,12.87
2023-04-30T08:07:46.556Z,13.05
2023-04-30T08:08:47.334Z,12.79
2023-04-30T08:09:46.549Z,12.61
2023-04-30T08:10:46.524Z,12.55
2023-04-30T08:11:46.577Z,12.62
2023-04-30T08:12:46.534Z,12.25
2023-04-30T08:13:46.577Z,12.37
2023-04-30T08:14:46.556Z,12.57
2023-04-30T08:15:46.489Z,12.93
2023-04-30T08:16:46.578Z,13.11
2023-04-30T08:17:46.571Z,13.08
2023-04-30T08:18:46.475Z,13.09
2023-04-30T08:19:46.489Z,12.80
2023-04-30T08:20:46.459Z,13.09
2023-04-30T08:21:46.448Z,12.97
2023-04-30T08:22:46.436Z,13.33
2023-04-30T08:23:46.437Z,13.42
2023-04-30T08:24:46.443Z,13.09
2023-04-30T08:25:46.413Z,12.87
2023-04-30T08:26:46.405Z,12.67
2023-04-30T08:27:46.425Z,12.61
2023-04-30T08:28:46.420Z,12.24
2023-04-30T08:29:46.428Z,12.45
2023-04-30T08:30:46.415Z,13.11
2023-04-30T08:31:46.437Z,13.47
2023-04-30T08:32:46.440Z,13.63
2023-04-30T08:33:46.380Z,13.38
2023-04-30T08:34:46.354Z,13.04
2023-04-30T08:35:46.354Z,13.22
2023-04-30T08:36:46.376Z,13.12
2023-04-30T08:37:46.357Z,13.08
2023-04-30T08:38:46.342Z,13.39
2023-04-30T08:39:46.348Z,13.28
2023-04-30T08:40:51.785Z,13.41
2023-04-30T08:41:46.300Z,13.08
2023-04-30T08:42:46.295Z,13.09
2023-04-30T08:45:23.818Z,13.03
2023-04-30T08:46:23.851Z,13.00
2023-04-30T08:47:23.822Z,12.72
2023-04-30T08:48:23.826Z,12.73
2023-04-30T08:49:24.864Z,13.05
2023-04-30T08:50:23.729Z,13.05
2023-04-30T08:51:23.741Z,13.42
2023-04-30T08:52:23.723Z,13.96
2023-04-30T08:53:23.707Z,13.57
2023-04-30T08:54:24.145Z,13.59
2023-04-30T08:55:23.705Z,13.71
2023-04-30T08:56:25.473Z,13.37
2023-04-30T08:57:23.678Z,13.08
2023-04-30T08:58:23.675Z,13.33
2023-04-30T08:59:23.675Z,13.31
2023-04-30T09:00:23.715Z,13.42
2023-04-30T09:01:23.702Z,13.49
2023-04-30T09:02:23.757Z,13.56
2023-04-30T09:03:23.842Z,13.59
2023-04-30T09:04:23.683Z,13.44
2023-04-30T09:05:23.676Z,13.46
2023-04-30T09:06:23.699Z,13.47
2023-04-30T09:07:23.637Z,13.47
2023-04-30T09:08:23.583Z,13.53
2023-04-30T09:09:23.576Z,13.70
2023-04-30T09:10:23.571Z,13.54
2023-04-30T09:11:23.552Z,13.86
2023-04-30T09:12:23.605Z,13.99
2023-04-30T09:13:23.602Z,14.03
2023-04-30T09:14:23.561Z,13.93
2023-04-30T09:15:23.771Z,13.86
2023-04-30T09:16:23.651Z,13.65
2023-04-30T09:17:23.570Z,13.38
2023-04-30T09:18:23.547Z,13.09
2023-04-30T09:19:23.517Z,13.53
2023-04-30T09:20:23.526Z,13.67
2023-04-30T09:21:23.486Z,13.56
2023-04-30T09:22:23.481Z,13.81
2023-04-30T09:23:23.476Z,13.75
2023-04-30T09:24:23.510Z,13.57
2023-04-30T09:25:23.450Z,13.12
2023-04-30T09:26:23.496Z,13.27
2023-04-30T09:27:23.514Z,13.62
2023-04-30T09:28:23.668Z,13.86
2023-04-30T09:29:23.439Z,13.97
2023-04-30T09:30:23.437Z,14.17
2023-04-30T09:31:23.422Z,14.28
2023-04-30T09:32:23.506Z,13.96
2023-04-30T09:33:23.421Z,13.97
2023-04-30T09:34:23.428Z,13.87
2023-04-30T09:35:23.381Z,13.53
2023-04-30T09:36:23.415Z,13.74
2023-04-30T09:37:23.367Z,13.59
2023-04-30T09:38:23.368Z,13.78
2023-04-30T09:39:23.368Z,13.85
2023-04-30T09:40:23.350Z,13.54
2023-04-30T09:41:23.587Z,13.68
2023-04-30T09:42:23.339Z,13.96
2023-04-30T09:43:23.350Z,14.28
2023-04-30T09:44:23.300Z,14.17
2023-04-30T09:45:23.296Z,14.23
2023-04-30T09:46:23.386Z,14.22
2023-04-30T09:47:23.313Z,14.25
2023-04-30T09:48:23.383Z,14.36
2023-04-30T09:49:23.420Z,14.59
2023-04-30T09:50:23.253Z,13.83
2023-04-30T09:51:23.243Z,13.87
2023-04-30T09:52:23.247Z,13.60
2023-04-30T09:53:23.234Z,13.62
2023-04-30T09:54:23.240Z,13.81
2023-04-30T09:55:23.238Z,13.59
2023-04-30T09:56:23.244Z,13.77
2023-04-30T09:57:23.198Z,13.78
2023-04-30T09:58:23.190Z,13.77
2023-04-30T09:59:23.174Z,13.87
2023-04-30T10:00:23.171Z,13.96
2023-04-30T10:01:23.290Z,14.22
2023-04-30T10:02:23.364Z,14.08
2023-04-30T10:03:23.171Z,13.86
2023-04-30T10:04:23.245Z,13.86
2023-04-30T10:05:23.148Z,14.23
2023-04-30T10:06:23.224Z,14.18
2023-04-30T10:07:23.235Z,14.08
2023-04-30T10:08:23.134Z,13.85
2023-04-30T10:09:23.097Z,13.62
2023-04-30T10:10:23.117Z,13.72
2023-04-30T10:11:23.108Z,13.92
2023-04-30T10:12:23.068Z,14.28
2023-04-30T10:13:23.054Z,14.79
2023-04-30T10:14:23.072Z,15.27
2023-04-30T10:15:23.086Z,15.22
2023-04-30T10:16:23.140Z,14.85
2023-04-30T10:17:23.098Z,14.72
2023-04-30T10:18:23.048Z,14.58
2023-04-30T10:19:23.019Z,14.47
2023-04-30T10:20:23.034Z,14.60
2023-04-30T10:21:23.036Z,14.10
2023-04-30T10:22:23.007Z,13.87
2023-04-30T10:23:22.985Z,14.17
2023-04-30T10:24:22.983Z,14.08
2023-04-30T10:25:22.979Z,14.22
2023-04-30T10:26:22.988Z,14.45
2023-04-30T10:27:22.962Z,14.65
2023-04-30T10:28:22.984Z,14.86
2023-04-30T10:29:22.946Z,14.62
2023-04-30T10:30:22.939Z,14.59
2023-04-30T10:31:22.989Z,14.59
2023-04-30T10:32:23.224Z,14.26
2023-04-30T10:33:22.922Z,14.41
2023-04-30T10:34:22.920Z,14.48
2023-04-30T10:35:22.892Z,14.28
2023-04-30T10:36:22.898Z,14.25
2023-04-30T10:37:22.901Z,14.22
2023-04-30T10:38:22.903Z,14.37
2023-04-30T10:39:22.868Z,14.41
2023-04-30T10:40:22.890Z,14.58
2023-04-30T10:41:22.857Z,14.72
2023-04-30T10:42:22.834Z,14.37
2023-04-30T10:43:22.848Z,14.33
2023-04-30T10:44:22.910Z,14.47
2023-04-30T10:45:22.853Z,14.55
2023-04-30T10:46:22.852Z,14.78
2023-04-30T10:47:22.790Z,14.70
2023-04-30T10:48:22.782Z,14.86
2023-04-30T10:49:23.023Z,14.88
2023-04-30T10:50:22.767Z,14.96
2023-04-30T10:51:22.806Z,14.96
2023-04-30T10:52:22.981Z,14.60
2023-04-30T10:53:22.858Z,14.62
2023-04-30T10:54:23.032Z,14.68
2023-04-30T10:55:22.732Z,15.04
2023-04-30T10:56:22.771Z,15.29
2023-04-30T10:57:22.735Z,15.21
2023-04-30T10:58:22.722Z,15.11
2023-04-30T10:59:22.690Z,15.09
2023-04-30T11:00:22.689Z,14.73
2023-04-30T11:01:22.693Z,14.66
2023-04-30T11:02:22.737Z,14.60
2023-04-30T11:03:22.673Z,14.55
2023-04-30T11:04:22.720Z,14.25
2023-04-30T11:05:22.645Z,14.44
2023-04-30T11:06:22.743Z,14.41
2023-04-30T11:07:22.686Z,14.54
2023-04-30T11:08:22.647Z,14.62
2023-04-30T11:09:22.661Z,14.84
2023-04-30T11:10:22.667Z,15.31
2023-04-30T11:11:22.672Z,15.22
2023-04-30T11:12:22.629Z,15.22
2023-04-30T11:13:22.604Z,15.29
2023-04-30T11:14:22.605Z,15.11
2023-04-30T11:15:22.603Z,15.11
2023-04-30T11:16:22.744Z,14.94
2023-04-30T11:17:22.761Z,14.65
2023-04-30T11:18:22.581Z,14.68
2023-04-30T11:19:22.578Z,14.55
2023-04-30T11:20:22.587Z,14.51
2023-04-30T11:21:22.572Z,14.28
2023-04-30T11:22:22.514Z,14.40
2023-04-30T11:23:32.281Z,14.44
2023-04-30T11:24:22.502Z,14.41
2023-04-30T11:25:22.545Z,14.37
2023-04-30T11:26:22.530Z,14.65
2023-04-30T11:27:22.703Z,14.51
2023-04-30T11:28:22.595Z,14.65
2023-04-30T11:29:22.718Z,14.84
2023-04-30T11:30:22.476Z,14.85
2023-04-30T11:31:22.485Z,14.86
2023-04-30T11:32:22.496Z,14.89
2023-04-30T11:33:22.435Z,15.03
2023-04-30T11:34:22.466Z,15.17
2023-04-30T11:35:22.424Z,15.51
2023-04-30T11:36:22.414Z,15.51
2023-04-30T11:37:22.622Z,15.46
2023-04-30T11:38:22.447Z,15.40
2023-04-30T11:39:22.432Z,15.61
2023-04-30T11:40:22.406Z,15.58
2023-04-30T11:41:22.451Z,15.44
2023-04-30T11:42:22.594Z,15.44
2023-04-30T11:43:22.385Z,15.28
2023-04-30T11:44:22.374Z,15.31
2023-04-30T11:45:22.345Z,15.28
2023-04-30T11:46:22.403Z,15.55
2023-04-30T11:47:23.180Z,15.62
2023-04-30T11:48:22.334Z,15.61
2023-04-30T11:49:22.298Z,15.73
2023-04-30T11:50:22.339Z,15.37
2023-04-30T11:51:22.296Z,15.25
2023-04-30T11:52:22.310Z,15.11
2023-04-30T11:53:22.264Z,15.06
2023-04-30T11:54:22.266Z,15.02
2023-04-30T11:55:22.313Z,15.07
2023-04-30T11:56:22.521Z,14.91
2023-04-30T11:57:22.268Z,14.86
2023-04-30T11:58:22.270Z,14.99
2023-04-30T11:59:22.236Z,15.31
2023-04-30T12:00:22.306Z,15.46
2023-04-30T12:01:22.241Z,15.36
2023-04-30T12:02:22.505Z,15.46
2023-04-30T12:03:22.251Z,15.36
2023-04-30T12:04:22.225Z,15.49
2023-04-30T12:05:22.220Z,15.52
2023-04-30T12:06:22.238Z,15.47
2023-04-30T12:07:22.725Z,15.49
2023-04-30T12:08:22.169Z,15.59
2023-04-30T12:09:22.144Z,15.80
2023-04-30T12:10:22.128Z,15.92
2023-04-30T12:11:22.133Z,15.95
2023-04-30T12:12:22.127Z,15.77
2023-04-30T12:13:22.352Z,15.59
2023-04-30T12:14:22.107Z,15.59
2023-04-30T12:15:22.106Z,15.44
2023-04-30T12:16:22.147Z,15.19
2023-04-30T12:17:22.165Z,15.03
2023-04-30T12:18:22.095Z,15.21
2023-04-30T12:19:22.095Z,15.31
2023-04-30T12:20:22.111Z,15.47
2023-04-30T12:21:22.070Z,15.31
2023-04-30T12:22:22.045Z,15.27
2023-04-30T12:23:22.039Z,15.43
2023-04-30T12:24:22.058Z,15.39
2023-04-30T12:25:22.049Z,15.59
2023-04-30T12:26:22.033Z,15.49
2023-04-30T12:27:22.057Z,15.46
2023-04-30T12:28:22.015Z,15.61
2023-04-30T12:29:22.070Z,15.54
2023-04-30T12:30:21.997Z,15.61
2023-04-30T12:31:21.992Z,15.92
2023-04-30T12:32:22.567Z,15.80
2023-04-30T12:33:22.111Z,15.49
2023-04-30T12:34:21.992Z,15.61
2023-04-30T12:35:21.984Z,15.68
2023-04-30T12:36:21.959Z,15.82
2023-04-30T12:37:21.924Z,15.54
2023-04-30T12:38:21.926Z,15.57
2023-04-30T12:39:21.940Z,15.59
2023-04-30T12:40:21.901Z,15.80
2023-04-30T12:41:21.901Z,16.00
2023-04-30T12:42:21.889Z,16.24
2023-04-30T12:43:21.890Z,16.33
2023-04-30T12:44:21.926Z,16.15
2023-04-30T12:45:21.914Z,16.24
2023-04-30T12:46:21.948Z,15.67
2023-04-30T12:47:21.894Z,15.77
2023-04-30T12:48:21.882Z,15.58
2023-04-30T12:49:22.065Z,15.61
2023-04-30T12:50:21.850Z,15.70
2023-04-30T12:51:21.846Z,15.64
2023-04-30T12:52:21.825Z,15.64
2023-04-30T12:53:21.832Z,15.64
2023-04-30T12:54:22.023Z,15.54
2023-04-30T12:55:21.807Z,15.65
2023-04-30T12:56:21.786Z,16.04
2023-04-30T12:57:21.809Z,16.16
2023-04-30T12:58:21.772Z,16.16
2023-04-30T12:59:21.763Z,15.91
2023-04-30T13:00:21.765Z,15.90
2023-04-30T13:01:21.918Z,15.92
2023-04-30T13:02:21.831Z,15.82
2023-04-30T13:03:21.898Z,15.64
2023-04-30T13:04:21.729Z,15.65